createdAt,value
2017-10-20T00:03:04.351Z,66.90
2017-10-20T00:06:14.444Z,67.90
2017-10-20T00:09:24.274Z,68.80
2017-10-20T00:12:34.146Z,68.50
2017-10-20T00:15:44.229Z,69.80
2017-10-20T00:18:54.189Z,70.30
2017-10-20T00:22:04.290Z,72.00
2017-10-20T00:25:14.926Z,70.10
2017-10-20T00:28:25.110Z,70.10
2017-10-20T00:31:34.924Z,69.50
2017-10-20T00:34:45.206Z,68.80
2017-10-20T00:37:55.421Z,69.20
2017-10-20T00:41:06.034Z,70.10
2017-10-20T00:44:16.677Z,70.50
2017-10-20T00:47:27.000Z,70.50
2017-10-20T00:50:37.182Z,71.40
2017-10-20T00:53:47.183Z,71.30
2017-10-20T00:56:57.326Z,71.30
2017-10-20T01:00:08.126Z,71.40
2017-10-20T01:03:18.572Z,71.20
2017-10-20T01:06:32.450Z,71.60
2017-10-20T01:09:43.018Z,72.60
2017-10-20T01:12:53.223Z,72.50
2017-10-20T01:16:02.990Z,72.70
2017-10-20T01:19:12.533Z,73.30
2017-10-20T01:22:22.298Z,73.80
2017-10-20T01:25:32.267Z,73.70
2017-10-20T01:28:42.258Z,73.30
2017-10-20T01:31:52.409Z,73.60
2017-10-20T01:35:01.971Z,73.50
2017-10-20T01:38:12.510Z,73.80
2017-10-20T01:41:22.579Z,73.30
2017-10-20T01:44:32.843Z,74.30
2017-10-20T01:47:42.779Z,75.20
2017-10-20T01:50:52.645Z,75.40
2017-10-20T01:54:03.301Z,75.60
2017-10-20T01:57:13.961Z,75.40
2017-10-20T02:00:23.748Z,75.70
2017-10-20T02:03:33.430Z,75.40
2017-10-20T02:06:43.737Z,76.40
2017-10-20T02:09:53.889Z,76.20
2017-10-20T02:13:03.799Z,76.40
2017-10-20T02:16:13.549Z,76.20
2017-10-20T02:19:23.932Z,76.40
2017-10-20T02:22:33.822Z,76.80
2017-10-20T02:25:43.631Z,77.10
2017-10-20T02:28:53.610Z,76.80
2017-10-20T02:32:03.899Z,76.90
2017-10-20T02:35:13.917Z,77.90
2017-10-20T02:38:23.834Z,79.10
2017-10-20T02:41:33.956Z,78.60
2017-10-20T02:44:43.958Z,78.70
2017-10-20T02:47:54.080Z,78.60
2017-10-20T02:51:04.005Z,78.30
2017-10-20T02:54:13.931Z,78.80
2017-10-20T02:57:23.908Z,78.70
2017-10-20T03:00:33.450Z,79.60
2017-10-20T03:03:43.766Z,79.40
2017-10-20T03:06:54.058Z,80.30
2017-10-20T03:10:04.882Z,80.30
2017-10-20T03:13:15.359Z,80.50
2017-10-20T03:16:25.441Z,80.30
2017-10-20T03:19:35.747Z,80.50
2017-10-20T03:22:46.437Z,80.50
2017-10-20T03:25:56.660Z,80.60
2017-10-20T03:29:07.966Z,78.80
2017-10-20T03:32:18.567Z,79.20
2017-10-20T03:35:28.653Z,78.60
2017-10-20T03:38:39.310Z,77.70
2017-10-20T03:41:49.609Z,77.70
2017-10-20T03:44:59.642Z,78.30
2017-10-20T03:48:09.624Z,78.00
2017-10-20T03:51:19.623Z,78.60
2017-10-20T03:54:29.583Z,79.10
2017-10-20T03:57:39.512Z,79.40
2017-10-20T04:00:50.140Z,78.00
2017-10-20T04:04:01.241Z,77.80
2017-10-20T04:07:11.467Z,77.70
2017-10-20T04:10:21.135Z,77.70
2017-10-20T04:13:31.531Z,77.90
2017-10-20T04:16:41.299Z,77.90
2017-10-20T04:19:51.380Z,78.80
2017-10-20T04:23:01.343Z,78.00
2017-10-20T04:26:11.362Z,78.30
2017-10-20T04:29:21.833Z,79.00
2017-10-20T04:32:31.786Z,78.60
2017-10-20T04:35:41.827Z,78.60
2017-10-20T04:38:52.550Z,78.90
2017-10-20T04:42:02.687Z,78.10
2017-10-20T04:45:12.453Z,78.90
2017-10-20T04:48:22.713Z,78.50
2017-10-20T04:51:33.150Z,78.30
2017-10-20T04:54:44.002Z,76.60
2017-10-20T04:57:55.038Z,76.40
2017-10-20T05:01:05.249Z,75.70
2017-10-20T05:04:16.136Z,75.40
2017-10-20T05:07:26.127Z,75.10
2017-10-20T05:10:36.117Z,75.00
2017-10-20T05:13:46.785Z,75.50
2017-10-20T05:16:56.944Z,75.60
2017-10-20T05:20:07.090Z,74.90
2017-10-20T05:23:17.184Z,75.80
2017-10-20T05:26:27.244Z,76.30
2017-10-20T05:29:37.813Z,75.30
2017-10-20T05:32:48.640Z,75.40
2017-10-20T05:35:58.784Z,75.30
2017-10-20T05:39:08.830Z,75.10
2017-10-20T05:42:18.805Z,75.50
2017-10-20T05:45:28.861Z,76.10
2017-10-20T05:48:38.887Z,76.40
2017-10-20T05:51:49.863Z,76.90
2017-10-20T05:54:59.991Z,76.90
2017-10-20T05:58:09.937Z,76.30
2017-10-20T06:01:21.269Z,76.90
2017-10-20T06:04:31.912Z,76.60
2017-10-20T06:07:42.982Z,76.60
2017-10-20T06:10:53.250Z,76.20
2017-10-20T06:14:04.023Z,76.10
2017-10-20T06:17:13.817Z,76.10
2017-10-20T06:20:24.147Z,76.50
2017-10-20T06:23:33.882Z,75.50
2017-10-20T06:26:43.863Z,76.00
2017-10-20T06:29:54.004Z,75.90
2017-10-20T06:33:04.130Z,75.60
2017-10-20T06:36:14.314Z,76.20
2017-10-20T06:39:25.150Z,77.10
2017-10-20T06:42:35.746Z,77.00
2017-10-20T06:45:45.796Z,77.70
2017-10-20T06:48:56.468Z,75.70
2017-10-20T06:52:06.708Z,75.60
2017-10-20T06:55:17.435Z,74.70
2017-10-20T06:58:27.950Z,75.30
2017-10-20T07:01:37.896Z,75.20
2017-10-20T07:04:47.662Z,75.50
2017-10-20T07:07:57.540Z,74.80
2017-10-20T07:11:07.614Z,75.00
2017-10-20T07:14:18.586Z,74.40
2017-10-20T07:17:28.828Z,74.20
2017-10-20T07:20:39.067Z,74.60
2017-10-20T07:23:49.945Z,71.30
2017-10-20T07:27:00.213Z,71.90
2017-10-20T07:30:10.254Z,70.50
2017-10-20T07:33:20.708Z,70.40
2017-10-20T07:36:31.820Z,69.30
2017-10-20T07:39:41.698Z,69.30
2017-10-20T07:42:51.778Z,70.40
2017-10-20T07:46:02.578Z,70.80
2017-10-20T07:49:13.548Z,69.00
2017-10-20T07:52:25.004Z,65.90
2017-10-20T07:55:35.922Z,66.00
2017-10-20T07:58:46.128Z,66.00
2017-10-20T08:01:57.403Z,70.50
2017-10-20T08:05:07.588Z,70.40
2017-10-20T08:08:17.971Z,72.50
2017-10-20T08:11:28.568Z,71.30
2017-10-20T08:14:39.149Z,71.30
2017-10-20T08:17:48.979Z,70.70
2017-10-20T08:20:59.519Z,71.60
2017-10-20T08:24:10.140Z,73.50
2017-10-20T08:27:20.358Z,71.90
2017-10-20T08:30:31.011Z,62.30
2017-10-20T08:33:41.622Z,62.20
2017-10-20T08:36:51.830Z,63.00
2017-10-20T08:40:02.166Z,62.70
2017-10-20T08:43:12.101Z,59.60
2017-10-20T08:46:21.972Z,60.00
2017-10-20T08:49:32.275Z,59.70
2017-10-20T08:52:42.706Z,61.20
2017-10-20T08:55:52.900Z,60.70
2017-10-20T08:59:04.987Z,63.20
2017-10-20T09:05:27.369Z,65.20
2017-10-20T09:08:37.622Z,67.30
2017-10-20T09:11:47.857Z,68.60
2017-10-20T09:14:57.639Z,70.00
2017-10-20T09:18:08.345Z,70.10
2017-10-20T09:21:18.886Z,69.10
2017-10-20T09:24:29.484Z,70.30
2017-10-20T09:27:40.238Z,69.30
2017-10-20T09:30:51.173Z,70.10
2017-10-20T09:34:01.183Z,72.50
2017-10-20T09:37:11.318Z,71.40
2017-10-20T09:40:22.101Z,71.60
2017-10-20T09:43:33.261Z,69.00
2017-10-20T09:46:43.248Z,69.00
2017-10-20T09:49:54.182Z,66.30
2017-10-20T09:53:05.441Z,66.20
2017-10-20T09:56:16.460Z,66.10
2017-10-20T09:59:26.883Z,66.10
2017-10-20T10:02:36.937Z,62.40
2017-10-20T10:05:46.707Z,63.00
2017-10-20T10:08:56.977Z,59.30
2017-10-20T10:12:06.922Z,59.50
2017-10-20T10:15:17.282Z,58.00
2017-10-20T10:18:27.102Z,60.80
2017-10-20T10:21:37.054Z,61.90
2017-10-20T10:24:46.439Z,60.90
2017-10-20T10:27:57.154Z,59.60
2017-10-20T10:31:06.940Z,59.50
2017-10-20T10:34:17.645Z,58.70
2017-10-20T10:37:28.183Z,58.80
2017-10-20T10:40:37.779Z,59.10
2017-10-20T10:43:48.845Z,60.70
2017-10-20T10:46:58.873Z,59.40
2017-10-20T10:50:10.364Z,56.90
2017-10-20T10:53:20.944Z,57.70
2017-10-20T10:56:32.055Z,57.00
2017-10-20T10:59:42.156Z,57.00
2017-10-20T11:02:51.964Z,55.90
2017-10-20T11:06:15.330Z,57.70
2017-10-20T11:09:26.424Z,59.30
2017-10-20T11:12:42.541Z,59.40
2017-10-20T11:15:53.121Z,59.40
2017-10-20T11:19:03.108Z,60.00
2017-10-20T11:22:13.749Z,59.50
2017-10-20T11:25:26.242Z,60.80
2017-10-20T11:28:37.250Z,59.70
2017-10-20T11:31:47.790Z,59.60
2017-10-20T11:34:57.858Z,59.70
2017-10-20T11:38:08.886Z,59.00
2017-10-20T11:41:18.688Z,58.90
2017-10-20T11:44:28.873Z,59.30
2017-10-20T11:47:39.408Z,59.80
2017-10-20T11:50:49.585Z,59.80
2017-10-20T11:53:59.992Z,60.70
2017-10-20T11:57:12.200Z,61.30
2017-10-20T12:00:23.019Z,60.40
2017-10-20T12:03:33.377Z,60.30
2017-10-20T12:06:44.327Z,61.50
2017-10-20T12:09:53.828Z,62.30
2017-10-20T12:13:05.067Z,61.00
2017-10-20T12:16:15.161Z,61.00
2017-10-20T12:19:26.989Z,62.10
2017-10-20T12:22:38.406Z,61.60
2017-10-20T12:25:48.706Z,61.40
2017-10-20T12:28:59.618Z,61.50
2017-10-20T12:32:09.887Z,61.50
2017-10-20T12:35:20.232Z,62.40
2017-10-20T12:38:30.925Z,62.90
2017-10-20T12:41:41.551Z,62.80
2017-10-20T12:44:51.751Z,64.00
2017-10-20T12:48:02.562Z,63.30
2017-10-20T12:51:16.940Z,63.20
2017-10-20T12:54:27.115Z,64.80
2017-10-20T12:57:37.309Z,63.20
2017-10-20T13:00:47.067Z,63.50
2017-10-20T13:03:57.492Z,64.20
2017-10-20T13:07:07.316Z,64.70
2017-10-20T13:10:17.396Z,62.10
2017-10-20T13:13:27.283Z,63.10
2017-10-20T13:16:37.256Z,62.30
2017-10-20T13:19:48.093Z,64.60
2017-10-20T13:22:58.457Z,64.60
2017-10-20T13:26:08.524Z,65.00
2017-10-20T13:29:18.966Z,65.10
2017-10-20T13:32:29.585Z,65.80
2017-10-20T13:35:40.591Z,67.30
2017-10-20T13:38:50.580Z,67.10
2017-10-20T13:42:01.406Z,67.40
2017-10-20T13:45:11.970Z,67.30
2017-10-20T13:48:22.121Z,68.70
2017-10-20T13:51:32.203Z,69.30
2017-10-20T13:54:43.456Z,69.60
2017-10-20T13:57:53.650Z,69.60
2017-10-20T14:01:04.385Z,69.60
2017-10-20T14:04:14.624Z,69.60
2017-10-20T14:07:24.534Z,69.70
2017-10-20T14:10:34.893Z,69.10
2017-10-20T14:13:44.896Z,68.10
2017-10-20T14:16:54.934Z,66.10
2017-10-20T14:20:04.891Z,67.20
2017-10-20T14:23:14.880Z,67.20
2017-10-20T14:26:26.309Z,68.50
2017-10-20T14:29:36.073Z,68.00
2017-10-20T14:32:46.239Z,67.50
2017-10-20T14:35:56.409Z,65.90
2017-10-20T14:39:06.368Z,66.20
2017-10-20T14:42:16.270Z,67.50
2017-10-20T14:45:26.376Z,66.30
2017-10-20T14:48:37.294Z,67.40
2017-10-20T14:51:47.503Z,68.10
2017-10-20T14:54:57.525Z,68.20
2017-10-20T14:58:07.522Z,67.30
2017-10-20T15:01:17.837Z,68.50
2017-10-20T15:04:28.198Z,68.80
2017-10-20T15:07:38.038Z,67.90
2017-10-20T15:10:48.203Z,69.00
2017-10-20T15:13:58.661Z,70.00
2017-10-20T15:17:08.670Z,69.10
2017-10-20T15:20:19.597Z,73.70
2017-10-20T15:23:29.582Z,73.70
2017-10-20T15:26:39.603Z,74.00
2017-10-20T15:29:50.279Z,73.20
2017-10-20T15:33:01.066Z,73.80
2017-10-20T15:36:10.950Z,75.00
2017-10-20T15:39:21.080Z,73.60
2017-10-20T15:42:31.882Z,71.30
2017-10-20T15:45:43.006Z,71.20
2017-10-20T15:48:53.237Z,71.20
2017-10-20T15:52:03.155Z,69.50
2017-10-20T15:55:13.522Z,69.30
2017-10-20T15:58:24.089Z,71.60
2017-10-20T16:01:34.087Z,69.40
2017-10-20T16:04:44.087Z,69.10
2017-10-20T16:07:54.125Z,69.00
2017-10-20T16:11:04.756Z,68.60
2017-10-20T16:14:14.597Z,69.50
2017-10-20T16:17:24.990Z,69.40
2017-10-20T16:20:35.035Z,69.60
2017-10-20T16:23:44.854Z,70.20
2017-10-20T16:26:54.613Z,71.70
2017-10-20T16:30:04.154Z,70.10
2017-10-20T16:33:14.482Z,70.60
2017-10-20T16:36:24.587Z,71.30
2017-10-20T16:39:36.452Z,71.20
2017-10-20T16:42:47.320Z,70.30
2017-10-20T16:45:57.766Z,70.20
2017-10-20T16:49:08.500Z,69.90
2017-10-20T16:52:18.611Z,71.10
2017-10-20T16:55:29.254Z,71.60
2017-10-20T16:58:39.332Z,71.50
2017-10-20T17:01:49.276Z,71.60
2017-10-20T17:04:59.310Z,71.80
2017-10-20T17:08:09.219Z,72.00
2017-10-20T17:11:20.172Z,72.30
2017-10-20T17:14:30.442Z,72.70
2017-10-20T17:17:41.625Z,72.80
2017-10-20T17:20:52.748Z,72.80
2017-10-20T17:24:03.726Z,73.40
2017-10-20T17:27:14.392Z,73.70
2017-10-20T17:30:26.230Z,74.00
2017-10-20T17:33:37.134Z,74.00
2017-10-20T17:36:49.046Z,74.40
2017-10-20T17:39:59.170Z,74.30
2017-10-20T17:43:09.044Z,74.50
2017-10-20T17:46:20.340Z,74.70
2017-10-20T17:49:30.628Z,75.00
2017-10-20T17:52:40.592Z,74.90
2017-10-20T17:55:50.464Z,75.20
2017-10-20T17:59:00.762Z,74.90
2017-10-20T18:02:10.778Z,75.20
2017-10-20T18:05:21.427Z,75.60
2017-10-20T18:08:31.884Z,75.60
2017-10-20T18:11:42.004Z,75.60
2017-10-20T18:14:52.667Z,76.50
2017-10-20T18:18:02.963Z,77.80
2017-10-20T18:21:13.053Z,77.70
2017-10-20T18:24:23.280Z,77.80
2017-10-20T18:34:43.575Z,77.80
2017-10-20T18:37:53.867Z,78.40
2017-10-20T18:41:05.093Z,78.40
2017-10-20T18:44:15.324Z,78.30
2017-10-20T18:47:25.403Z,78.40
2017-10-20T18:50:35.907Z,78.60
2017-10-20T18:53:46.504Z,78.80
2017-10-20T18:56:56.591Z,79.00
2017-10-20T19:00:06.927Z,80.70
2017-10-20T19:03:17.577Z,81.10
2017-10-20T19:06:27.559Z,81.30
2017-10-20T19:09:37.601Z,81.60
2017-10-20T19:12:47.608Z,81.30
2017-10-20T19:15:57.912Z,81.50
2017-10-20T19:19:08.032Z,81.50
2017-10-20T19:22:18.660Z,82.40
2017-10-20T19:25:28.886Z,82.30
2017-10-20T19:28:38.831Z,82.90
2017-10-20T19:31:49.595Z,83.30
2017-10-20T19:35:00.496Z,83.50
2017-10-20T19:38:10.494Z,83.50
2017-10-20T19:41:20.585Z,82.90
2017-10-20T19:44:30.693Z,82.90
2017-10-20T19:47:41.240Z,83.10
2017-10-20T19:50:52.169Z,83.30
2017-10-20T19:54:02.329Z,83.30
2017-10-20T19:57:13.195Z,83.50
2017-10-20T20:00:23.145Z,83.50
2017-10-20T20:03:32.887Z,83.20
2017-10-20T20:06:42.762Z,80.80
2017-10-20T20:09:52.616Z,79.70
2017-10-20T20:13:02.591Z,80.10
2017-10-20T20:16:12.660Z,81.00
2017-10-20T20:19:23.317Z,81.30
2017-10-20T20:22:33.210Z,81.60
2017-10-20T20:25:43.138Z,82.00
2017-10-20T20:28:53.026Z,82.20
2017-10-20T20:32:06.068Z,83.20
2017-10-20T20:35:16.216Z,82.80
2017-10-20T20:38:25.997Z,83.20
2017-10-20T20:41:36.263Z,83.40
2017-10-20T20:44:49.118Z,83.90
2017-10-20T20:47:59.220Z,83.90
2017-10-20T20:51:10.141Z,84.30
2017-10-20T20:54:20.367Z,84.30
2017-10-20T20:57:30.168Z,83.30
2017-10-20T21:00:40.334Z,82.80
2017-10-20T21:03:50.515Z,83.10
2017-10-20T21:07:00.631Z,83.50
2017-10-20T21:10:10.507Z,83.40
2017-10-20T21:13:20.628Z,83.60
2017-10-20T21:16:31.445Z,83.70
2017-10-20T21:19:41.411Z,83.60
2017-10-20T21:22:51.308Z,83.40
2017-10-20T21:26:01.479Z,83.40
2017-10-20T21:29:11.479Z,84.50
2017-10-20T21:32:21.527Z,83.90
2017-10-20T21:35:31.392Z,83.50
2017-10-20T21:38:41.359Z,83.50
2017-10-20T21:41:51.432Z,83.20
2017-10-20T21:45:01.461Z,82.70
2017-10-20T21:48:12.547Z,83.40
2017-10-20T21:51:23.139Z,83.20
2017-10-20T21:54:33.193Z,84.10
2017-10-20T21:57:43.321Z,84.00
2017-10-20T22:00:53.107Z,83.90
2017-10-20T22:04:04.054Z,83.90
2017-10-20T22:07:14.654Z,83.90
2017-10-20T22:10:24.719Z,83.90
2017-10-20T22:13:34.581Z,83.90
2017-10-20T22:16:45.484Z,84.50
2017-10-20T22:19:56.482Z,84.10
2017-10-20T22:23:07.006Z,84.10
2017-10-20T22:26:17.731Z,84.70
2017-10-20T22:29:28.210Z,84.70
2017-10-20T22:32:38.293Z,85.00
2017-10-20T22:35:48.481Z,84.40
2017-10-20T22:38:58.468Z,85.10
2017-10-20T22:42:09.371Z,86.00
2017-10-20T22:45:19.813Z,85.40
2017-10-20T22:48:29.775Z,85.50
2017-10-20T22:51:39.750Z,85.50
2017-10-20T22:54:50.068Z,85.80
2017-10-20T22:58:00.169Z,85.90
2017-10-20T23:01:10.169Z,86.00
2017-10-20T23:04:19.926Z,85.80
2017-10-20T23:07:30.987Z,85.80
2017-10-20T23:10:42.706Z,85.80
2017-10-20T23:13:53.298Z,86.30
2017-10-20T23:17:03.218Z,84.60
2017-10-20T23:20:13.177Z,84.70
2017-10-20T23:23:23.862Z,85.10
2017-10-20T23:26:34.274Z,85.00
2017-10-20T23:29:44.492Z,86.50
2017-10-20T23:32:54.648Z,86.70
2017-10-20T23:36:05.327Z,86.90
2017-10-20T23:39:16.809Z,86.30
2017-10-20T23:42:27.317Z,86.10
2017-10-20T23:45:37.191Z,86.70
2017-10-20T23:48:47.295Z,87.40
2017-10-20T23:51:57.328Z,86.60
2017-10-20T23:55:07.367Z,86.90
2017-10-20T23:58:17.166Z,86.50
